This is the latest recevied weather packets stored in our database for station/object EA4BCR. If no packets are shown the sender has not sent any weather packets the latest 10 day(s).
| Time | Temp. | Humidity | Pressure | Rain* | Wind** | Luminosity | Snow |
|---|---|---|---|---|---|---|---|
| 1787700613 | 17.22° C | 50% | 1014.3 hPa | - | - | - | - |
| 1787700013 | 17.78° C | 49% | 1014.2 hPa | - | - | - | - |
| 1787699413 | 17.78° C | 49% | 1014.4 hPa | - | - | - | - |
| 1787698813 | 17.78° C | 49% | 1014.5 hPa | - | - | - | - |
| 1787698213 | 18.33° C | 49% | 1014.4 hPa | - | - | - | - |
| 1787697613 | 17.78° C | 49% | 1014.5 hPa | - | - | - | - |
| 1787697013 | 18.33° C | 48% | 1014.5 hPa | - | - | - | - |
| 1787696413 | 18.33° C | 47% | 1014.4 hPa | - | - | - | - |
| 1787695813 | 18.89° C | 47% | 1014.4 hPa | - | - | - | - |
| 1787695213 | 18.89° C | 46% | 1014.3 hPa | - | - | - | - |
| 1787694613 | 19.44° C | 46% | 1014.1 hPa | - | - | - | - |
| 1787694013 | 20° C | 43% | 1013.8 hPa | - | - | - | - |
| 1787693415 | 20.56° C | 43% | 1013.5 hPa | - | - | - | - |
| 1787692813 | 20.56° C | 43% | 1013.6 hPa | - | - | - | - |
| 1787692213 | 21.11° C | 44% | 1013.4 hPa | - | - | - | - |
| 1787691613 | 21.11° C | 43% | 1013.2 hPa | - | - | - | - |
| 1787691013 | 21.67° C | 44% | 1013 hPa | - | - | - | - |
| 1787690413 | 22.22° C | 41% | 1012.9 hPa | - | - | - | - |
| 1787689813 | 22.22° C | 41% | 1012.9 hPa | - | - | - | - |
| 1787689213 | 22.22° C | 40% | 1012.7 hPa | - | - | - | - |
| 1787688613 | 22.78° C | 40% | 1012.4 hPa | - | - | - | - |
| 1787688013 | 23.33° C | 40% | 1012.3 hPa | - | - | - | - |
| 1787687413 | 23.33° C | 39% | 1012.1 hPa | - | - | - | - |
| 1787686813 | 23.33° C | 37% | 1012 hPa | - | - | - | - |
| 1787686213 | 24.44° C | 37% | 1011.4 hPa | - | - | - | - |
* Rain since midnight (hover to see other rain measurements)
** Current wind speed in m/s (hover to see current wind gust speed)